General O'Brien, Argentina
Current Conditions -  °F | °C
As of 10:00 PM on Tuesday 21 Oct 2014 (Local Time) from SAEZ Reporting Station
Clear Clear  
Wind Chill: 24°   Ceiling: Unl
Heat Index: 24°   Visibility: 6mi
Dew Point: 12°   Wind: 6mph
Humidity: 47%   Direction: 30°NNE
Pressure: 30.03"   Gusts: NA
Location:  34.91°S, 60.63°W
Report Text: SAEZ 220100Z 03005KT 360V060 CAVOK 24/12 Q1017
Loading
Personal Weather Stations






























Interactive Weather Map
Tropical Storm Tracking
New forecast layout! Learn more

10-Day Weather Forecast

Advertisements
Track Severe Weather on mobile